WXM80 ListenWXM80 Stop

You find our weather info also at:

UK Metoffice

WeatherCloud

Weather Underground

Northeastern Weather Network

AWEKAS

Citizen Weather Observer Program (CWOP)

HAMweather, WeatherForYou, PWS Weather


Weather Underground History page Text

Daily Summary for June 26, 2016 Units:  English    Metric   Both
« Previous Day
Next Day »
Daily Weekly Monthly Yearly Custom
  High: Low: Average:
Temperature: 86.1 °F 59.6 °F 71.9 °F
Dew Point: 72.0 °F 55.2 °F 60.8 °F
Humidity: 96 % 48 % 70 %
Wind Speed: 6.5 mph 0.0 mph 1.1 mph
Wind Gust: 11.5 mph - -
Wind:- - SSE
Pressure: 30.22 in 30.09 in -
Precipitation: 0.00 in    
Historical Graphs
 
 
Tabular Data for June 26, 2016
Time Temperature Dew Point Pressure Wind Wind Speed Wind Gust Humidity Rainfall Rate (Hourly)
00:00 64.9 °F 57.9 °F 30.18 in Calm     78 % 0.00 in
00:05 64.7 °F 57.7 °F 30.18 in Calm     78 % 0.00 in
00:10 64.5 °F 57.5 °F 30.18 in Calm     78 % 0.00 in
00:15 64.3 °F 57.6 °F 30.18 in Calm     79 % 0.00 in
00:20 64.2 °F 57.5 °F 30.18 in Calm     79 % 0.00 in
00:25 64.0 °F 57.4 °F 30.18 in Calm     79 % 0.00 in
00:30 63.9 °F 57.6 °F 30.18 in Calm     80 % 0.00 in
00:35 63.7 °F 57.4 °F 30.18 in Calm     80 % 0.00 in
00:40 63.6 °F 57.3 °F 30.18 in Calm     80 % 0.00 in
00:46 63.4 °F 57.5 °F 30.18 in Calm     81 % 0.00 in
00:51 63.2 °F 57.3 °F 30.18 in Calm     81 % 0.00 in
00:56 63.1 °F 57.2 °F 30.18 in Calm     81 % 0.00 in
01:01 63.0 °F 57.1 °F 30.19 in Calm     81 % 0.00 in
01:06 62.9 °F 57.0 °F 30.19 in Calm     81 % 0.00 in
01:11 62.7 °F 57.1 °F 30.19 in Calm     82 % 0.00 in
01:16 62.6 °F 57.0 °F 30.18 in Calm     82 % 0.00 in
01:21 62.5 °F 57.3 °F 30.18 in Calm     83 % 0.00 in
01:26 62.4 °F 57.2 °F 30.19 in Calm     83 % 0.00 in
01:31 62.2 °F 57.0 °F 30.19 in Calm     83 % 0.00 in
01:37 62.1 °F 56.9 °F 30.19 in Calm     83 % 0.00 in
01:42 62.0 °F 56.8 °F 30.18 in Calm     83 % 0.00 in
01:47 62.0 °F 57.1 °F 30.19 in Calm     84 % 0.00 in
01:52 61.8 °F 56.9 °F 30.18 in Calm     84 % 0.00 in
01:57 61.8 °F 56.9 °F 30.19 in Calm     84 % 0.00 in
02:02 61.7 °F 57.1 °F 30.19 in Calm     85 % 0.00 in
02:07 61.6 °F 57.0 °F 30.19 in Calm     85 % 0.00 in
02:12 61.5 °F 56.9 °F 30.19 in Calm     85 % 0.00 in
02:17 61.4 °F 56.8 °F 30.19 in Calm     85 % 0.00 in
02:23 61.4 °F 57.2 °F 30.19 in Calm     86 % 0.00 in
02:28 61.3 °F 57.1 °F 30.19 in Calm     86 % 0.00 in
02:33 61.2 °F 57.0 °F 30.19 in Calm     86 % 0.00 in
02:38 61.1 °F 56.9 °F 30.19 in Calm     86 % 0.00 in
02:43 61.1 °F 57.2 °F 30.20 in Calm     87 % 0.00 in
02:48 61.0 °F 56.8 °F 30.21 in Calm     86 % 0.00 in
02:53 60.9 °F 56.7 °F 30.21 in Calm     86 % 0.00 in
03:08 60.7 °F 56.8 °F 30.21 in Calm     87 % 0.00 in
03:14 60.7 °F 56.8 °F 30.21 in Calm     87 % 0.00 in
03:19 60.6 °F 57.0 °F 30.21 in Calm     88 % 0.00 in
03:24 60.5 °F 56.9 °F 30.21 in Calm     88 % 0.00 in
03:29 60.4 °F 56.8 °F 30.20 in Calm     88 % 0.00 in
03:34 60.4 °F 57.1 °F 30.21 in Calm     89 % 0.00 in
03:39 60.3 °F 57.0 °F 30.21 in Calm     89 % 0.00 in
03:44 60.3 °F 57.0 °F 30.21 in Calm     89 % 0.00 in
03:49 60.3 °F 57.0 °F 30.21 in Calm     89 % 0.00 in
03:54 60.3 °F 57.4 °F 30.22 in Calm     90 % 0.00 in
03:59 60.3 °F 57.4 °F 30.21 in Calm     90 % 0.00 in
04:05 60.3 °F 57.4 °F 30.21 in Calm     90 % 0.00 in
04:10 60.3 °F 57.4 °F 30.22 in Calm     90 % 0.00 in
04:15 60.3 °F 57.7 °F 30.21 in Calm     91 % 0.00 in
04:20 60.3 °F 57.7 °F 30.21 in Calm     91 % 0.00 in
04:25 60.3 °F 57.7 °F 30.21 in SE 0.2 mph 1.2 mph 91 % 0.00 in
04:30 60.2 °F 57.6 °F 30.21 in Calm     91 % 0.00 in
04:35 60.3 °F 57.7 °F 30.21 in Calm     91 % 0.00 in
04:40 60.2 °F 57.6 °F 30.21 in Calm     91 % 0.00 in
04:45 60.2 °F 57.6 °F 30.21 in Calm     91 % 0.00 in
04:50 60.2 °F 57.6 °F 30.20 in Calm     91 % 0.00 in
04:56 60.1 °F 57.5 °F 30.20 in Calm     91 % 0.00 in
05:06 60.0 °F 57.4 °F 30.20 in Calm     91 % 0.00 in
05:11 60.0 °F 57.4 °F 30.20 in Calm     91 % 0.00 in
05:16 59.9 °F 57.3 °F 30.20 in Calm     91 % 0.00 in
05:21 59.9 °F 57.3 °F 30.20 in Calm     91 % 0.00 in
05:26 59.8 °F 57.2 °F 30.20 in Calm     91 % 0.00 in
05:31 59.8 °F 57.2 °F 30.20 in Calm     91 % 0.00 in
05:36 59.7 °F 57.1 °F 30.20 in Calm     91 % 0.00 in
05:41 59.7 °F 57.1 °F 30.20 in Calm     91 % 0.00 in
05:47 59.6 °F 57.0 °F 30.20 in Calm     91 % 0.00 in
05:52 59.6 °F 57.3 °F 30.20 in Calm     92 % 0.00 in
05:57 59.6 °F 57.3 °F 30.20 in Calm     92 % 0.00 in
06:02 59.6 °F 57.3 °F 30.20 in Calm     92 % 0.00 in
06:07 59.6 °F 57.3 °F 30.20 in Calm     92 % 0.00 in
06:12 59.7 °F 57.7 °F 30.19 in Calm     93 % 0.00 in
06:17 59.8 °F 57.8 °F 30.20 in Calm     93 % 0.00 in
06:22 60.0 °F 58.3 °F 30.19 in Calm     94 % 0.00 in
06:27 60.1 °F 58.4 °F 30.20 in Calm     94 % 0.00 in
06:32 60.3 °F 58.6 °F 30.19 in Calm     94 % 0.00 in
06:38 60.6 °F 59.2 °F 30.19 in Calm     95 % 0.00 in
06:43 61.0 °F 59.6 °F 30.19 in Calm     95 % 0.00 in
06:48 61.3 °F 59.9 °F 30.19 in Calm     95 % 0.00 in
06:53 61.7 °F 60.5 °F 30.19 in Calm     96 % 0.00 in
06:58 62.0 °F 60.6 °F 30.19 in Calm     95 % 0.00 in
07:03 62.4 °F 61.2 °F 30.19 in Calm     96 % 0.00 in
07:08 62.8 °F 61.6 °F 30.19 in Calm     96 % 0.00 in
07:13 63.4 °F 62.2 °F 30.19 in Calm     96 % 0.00 in
07:18 63.9 °F 62.4 °F 30.18 in Calm     95 % 0.00 in
07:23 64.5 °F 63.0 °F 30.19 in SE 0.4 mph 1.2 mph 95 % 0.00 in
07:34 65.8 °F 63.7 °F 30.19 in SW 0.9 mph 3.5 mph 93 % 0.00 in
07:39 66.4 °F 64.0 °F 30.19 in SW 1.9 mph 3.5 mph 92 % 0.00 in
07:44 67.0 °F 64.0 °F 30.19 in WSW 1.3 mph 2.3 mph 90 % 0.00 in
07:49 67.4 °F 63.7 °F 30.19 in WSW 1.2 mph 2.3 mph 88 % 0.00 in
07:54 67.8 °F 63.8 °F 30.19 in SW 2.4 mph 4.0 mph 87 % 0.00 in
08:04 68.4 °F 63.7 °F 30.20 in SW 0.2 mph 1.2 mph 85 % 0.00 in
08:09 68.7 °F 64.0 °F 30.20 in WNW 1.1 mph 3.5 mph 85 % 0.00 in
08:14 68.9 °F 64.2 °F 30.19 in West 1.2 mph 3.5 mph 85 % 0.00 in
08:20 69.2 °F 64.5 °F 30.19 in NW 2.7 mph 3.5 mph 85 % 0.00 in
08:25 69.4 °F 64.4 °F 30.19 in NW 0.1 mph 1.2 mph 84 % 0.00 in
08:30 69.7 °F 64.0 °F 30.19 in NW 1.1 mph 3.5 mph 82 % 0.00 in
08:35 70.0 °F 64.6 °F 30.19 in NW 0.2 mph 2.3 mph 83 % 0.00 in
08:40 70.3 °F 63.5 °F 30.19 in SW 4.3 mph 5.8 mph 79 % 0.00 in
08:45 70.6 °F 63.8 °F 30.19 in WSW 0.8 mph 2.3 mph 79 % 0.00 in
08:50 70.9 °F 63.0 °F 30.19 in WSW 2.4 mph 4.0 mph 76 % 0.00 in
08:55 71.2 °F 63.2 °F 30.20 in WSW 0.4 mph 2.3 mph 76 % 0.00 in
09:00 71.4 °F 63.4 °F 30.20 in NW 1.9 mph 3.5 mph 76 % 0.00 in
09:05 71.7 °F 63.4 °F 30.19 in NW 1.3 mph 4.0 mph 75 % 0.00 in
09:11 71.9 °F 64.3 °F 30.19 in NW 0.4 mph 3.5 mph 77 % 0.00 in
09:16 72.2 °F 64.6 °F 30.19 in ENE 1.5 mph 3.5 mph 77 % 0.00 in
09:21 72.5 °F 65.2 °F 30.19 in NE 2.5 mph 3.5 mph 78 % 0.00 in
09:26 72.6 °F 66.1 °F 30.20 in NNE 1.5 mph 3.0 mph 80 % 0.00 in
09:31 72.6 °F 66.1 °F 30.20 in North 1.7 mph 3.5 mph 80 % 0.00 in
09:36 72.7 °F 66.2 °F 30.20 in ENE 1.6 mph 3.5 mph 80 % 0.00 in
09:41 72.5 °F 65.2 °F 30.20 in NE 1.0 mph 2.3 mph 78 % 0.00 in
09:46 72.7 °F 66.2 °F 30.19 in NE 0.6 mph 2.3 mph 80 % 0.00 in
09:51 73.1 °F 66.2 °F 30.19 in NE 2.1 mph 3.0 mph 79 % 0.00 in
09:56 73.7 °F 66.8 °F 30.19 in NNE 1.1 mph 3.5 mph 79 % 0.00 in
10:02 74.4 °F 66.0 °F 30.19 in NNE 1.7 mph 4.6 mph 75 % 0.00 in
10:07 75.3 °F 67.2 °F 30.19 in NNE 0.5 mph 3.5 mph 76 % 0.00 in
10:12 76.2 °F 66.5 °F 30.19 in NNE 1.1 mph 2.3 mph 72 % 0.00 in
10:17 77.2 °F 67.5 °F 30.19 in NE 0.9 mph 2.3 mph 72 % 0.00 in
10:22 78.0 °F 66.6 °F 30.19 in ENE 1.7 mph 3.5 mph 68 % 0.00 in
10:27 78.6 °F 69.2 °F 30.19 in ENE 0.2 mph 1.2 mph 73 % 0.00 in
10:32 79.3 °F 67.8 °F 30.19 in NE 1.3 mph 3.5 mph 68 % 0.00 in
10:37 79.8 °F 66.5 °F 30.19 in ENE 1.4 mph 3.5 mph 64 % 0.00 in
10:42 79.9 °F 67.1 °F 30.19 in ENE 0.9 mph 3.5 mph 65 % 0.00 in
10:47 80.2 °F 67.4 °F 30.19 in NE 1.9 mph 3.5 mph 65 % 0.00 in
10:53 80.3 °F 66.1 °F 30.18 in NE 2.2 mph 3.5 mph 62 % 0.00 in
11:03 80.9 °F 67.6 °F 30.18 in NNE 2.2 mph 3.5 mph 64 % 0.00 in
11:08 81.3 °F 67.0 °F 30.18 in North 2.8 mph 5.0 mph 62 % 0.00 in
11:13 81.5 °F 68.6 °F 30.18 in NNE 2.9 mph 4.6 mph 65 % 0.00 in
11:18 81.8 °F 67.0 °F 30.19 in NNE 3.3 mph 4.6 mph 61 % 0.00 in
11:23 82.1 °F 69.2 °F 30.19 in North 0.2 mph 3.5 mph 65 % 0.00 in
11:28 82.3 °F 67.0 °F 30.19 in ENE 1.7 mph 3.5 mph 60 % 0.00 in
11:33 82.6 °F 66.8 °F 30.19 in NNE 1.8 mph 3.5 mph 59 % 0.00 in
11:44 83.2 °F 67.9 °F 30.18 in ENE 2.1 mph 3.5 mph 60 % 0.00 in
11:49 83.2 °F 67.9 °F 30.18 in North 1.9 mph 5.0 mph 60 % 0.00 in
11:54 83.5 °F 69.1 °F 30.18 in ENE 1.3 mph 4.0 mph 62 % 0.00 in
11:59 83.8 °F 67.9 °F 30.18 in NE 1.8 mph 3.5 mph 59 % 0.00 in
12:04 83.6 °F 68.2 °F 30.18 in ENE 1.8 mph 3.0 mph 60 % 0.00 in
12:09 83.2 °F 67.4 °F 30.18 in ENE 3.1 mph 5.0 mph 59 % 0.00 in
12:14 83.1 °F 68.7 °F 30.18 in NE 0.2 mph 1.2 mph 62 % 0.00 in
12:19 83.5 °F 70.5 °F 30.18 in ENE 0.3 mph 2.0 mph 65 % 0.00 in
12:24 83.9 °F 70.0 °F 30.18 in ENE 3.0 mph 4.0 mph 63 % 0.00 in
12:30 83.7 °F 69.3 °F 30.18 in ENE 3.2 mph 3.5 mph 62 % 0.00 in
12:35 83.5 °F 70.0 °F 30.18 in NE 1.0 mph 2.0 mph 64 % 0.00 in
12:45 84.0 °F 69.6 °F 30.18 in South 2.2 mph 5.8 mph 62 % 0.00 in
12:50 83.9 °F 70.0 °F 30.18 in ENE 0.7 mph 3.5 mph 63 % 0.00 in
12:55 84.6 °F 72.0 °F 30.18 in East 0.1 mph 1.2 mph 66 % 0.00 in
13:00 84.5 °F 67.6 °F 30.18 in WSW 2.3 mph 6.0 mph 57 % 0.00 in
13:05 84.4 °F 67.0 °F 30.18 in SSW 1.3 mph 4.6 mph 56 % 0.00 in
13:15 84.5 °F 67.6 °F 30.18 in SSE 1.8 mph 3.5 mph 57 % 0.00 in
13:21 85.2 °F 70.7 °F 30.18 in SSW 2.4 mph 4.6 mph 62 % 0.00 in
13:26 85.5 °F 65.9 °F 30.18 in WSW 2.7 mph 4.6 mph 52 % 0.00 in
13:31 84.3 °F 65.8 °F 30.18 in South 1.9 mph 4.6 mph 54 % 0.00 in
13:36 84.5 °F 67.1 °F 30.18 in South 0.8 mph 3.5 mph 56 % 0.00 in
13:41 85.0 °F 66.5 °F 30.17 in SSE 6.2 mph 11.0 mph 54 % 0.00 in
13:46 85.1 °F 66.6 °F 30.17 in SSW 3.2 mph 4.6 mph 54 % 0.00 in
13:51 85.3 °F 65.1 °F 30.17 in SSW 2.4 mph 6.9 mph 51 % 0.00 in
13:56 85.5 °F 65.9 °F 30.17 in SSW 1.1 mph 3.5 mph 52 % 0.00 in
14:01 85.5 °F 68.0 °F 30.17 in SE 0.5 mph 5.0 mph 56 % 0.00 in
14:06 85.1 °F 64.9 °F 30.17 in SW 2.0 mph 3.0 mph 51 % 0.00 in
14:12 85.6 °F 67.0 °F 30.17 in SW 2.6 mph 4.0 mph 54 % 0.00 in
14:17 85.6 °F 65.4 °F 30.17 in SE 0.5 mph 5.0 mph 51 % 0.00 in
14:22 85.4 °F 65.8 °F 30.16 in SW 2.6 mph 3.5 mph 52 % 0.00 in
14:27 85.9 °F 65.7 °F 30.17 in SSW 2.7 mph 3.5 mph 51 % 0.00 in
14:32 86.1 °F 65.3 °F 30.17 in SSE 0.2 mph 2.3 mph 50 % 0.00 in
14:37 85.7 °F 64.9 °F 30.16 in SSW 1.2 mph 3.5 mph 50 % 0.00 in
14:42 85.5 °F 65.3 °F 30.16 in SE 0.7 mph 2.3 mph 51 % 0.00 in
14:47 85.7 °F 64.9 °F 30.16 in SSE 4.4 mph 8.1 mph 50 % 0.00 in
14:52 85.4 °F 64.6 °F 30.16 in SSW 0.7 mph 2.3 mph 50 % 0.00 in
14:57 85.6 °F 64.8 °F 30.16 in South 4.8 mph 6.9 mph 50 % 0.00 in
15:03 85.8 °F 65.0 °F 30.15 in SW 1.0 mph 4.6 mph 50 % 0.00 in
15:08 85.4 °F 63.5 °F 30.15 in SSE 0.9 mph 3.5 mph 48 % 0.00 in
15:13 85.1 °F 63.8 °F 30.15 in SSE 2.5 mph 11.5 mph 49 % 0.00 in
15:18 84.6 °F 63.9 °F 30.15 in WSW 2.4 mph 4.6 mph 50 % 0.00 in
15:23 84.6 °F 63.9 °F 30.15 in SSW 3.3 mph 5.0 mph 50 % 0.00 in
15:28 84.8 °F 64.1 °F 30.15 in SSW 1.9 mph 3.5 mph 50 % 0.00 in
15:33 84.1 °F 63.5 °F 30.15 in SSE 2.8 mph 6.9 mph 50 % 0.00 in
15:38 83.6 °F 63.6 °F 30.15 in SSE 6.5 mph 10.4 mph 51 % 0.00 in
15:43 83.1 °F 64.7 °F 30.14 in SSW 1.2 mph 3.5 mph 54 % 0.00 in
15:48 83.2 °F 63.2 °F 30.14 in SSE 1.6 mph 9.2 mph 51 % 0.00 in
15:54 83.2 °F 63.7 °F 30.14 in SSW 1.7 mph 4.0 mph 52 % 0.00 in
15:59 83.0 °F 61.9 °F 30.14 in SSE 1.8 mph 4.6 mph 49 % 0.00 in
16:04 82.5 °F 62.0 °F 30.14 in SSE 2.8 mph 6.0 mph 50 % 0.00 in
16:09 82.0 °F 62.1 °F 30.14 in South 2.2 mph 3.5 mph 51 % 0.00 in
16:14 82.1 °F 62.7 °F 30.14 in South 2.8 mph 5.8 mph 52 % 0.00 in
16:19 82.3 °F 62.4 °F 30.14 in SW 2.4 mph 5.8 mph 51 % 0.00 in
16:24 82.3 °F 62.4 °F 30.14 in SSE 1.5 mph 5.8 mph 51 % 0.00 in
16:29 82.4 °F 62.5 °F 30.13 in South 0.8 mph 4.6 mph 51 % 0.00 in
16:34 81.9 °F 62.0 °F 30.13 in SSE 1.5 mph 6.9 mph 51 % 0.00 in
16:39 81.6 °F 61.2 °F 30.14 in SSE 2.8 mph 7.0 mph 50 % 0.00 in
16:45 80.9 °F 61.6 °F 30.13 in SSE 1.2 mph 5.8 mph 52 % 0.00 in
16:50 80.8 °F 62.1 °F 30.13 in SSE 2.3 mph 3.5 mph 53 % 0.00 in
16:55 80.9 °F 61.1 °F 30.13 in SE 1.1 mph 3.5 mph 51 % 0.00 in
17:00 80.8 °F 61.0 °F 30.13 in SSW 1.5 mph 4.0 mph 51 % 0.00 in
17:05 80.8 °F 61.0 °F 30.13 in SE 2.3 mph 4.6 mph 51 % 0.00 in
17:10 80.6 °F 59.7 °F 30.13 in SSE 1.2 mph 3.5 mph 49 % 0.00 in
17:15 80.4 °F 60.1 °F 30.13 in SSE 1.8 mph 5.0 mph 50 % 0.00 in
17:20 80.4 °F 60.6 °F 30.13 in South 1.5 mph 3.5 mph 51 % 0.00 in
17:25 80.4 °F 60.6 °F 30.13 in SE 3.1 mph 9.0 mph 51 % 0.00 in
17:30 79.8 °F 59.5 °F 30.13 in SSW 2.1 mph 10.4 mph 50 % 0.00 in
17:36 79.4 °F 59.7 °F 30.12 in SSE 1.4 mph 6.9 mph 51 % 0.00 in
17:41 79.3 °F 60.1 °F 30.12 in South 1.6 mph 3.5 mph 52 % 0.00 in
17:51 79.1 °F 59.4 °F 30.11 in SE 1.5 mph 5.0 mph 51 % 0.00 in
17:56 78.7 °F 59.0 °F 30.11 in South 3.7 mph 9.2 mph 51 % 0.00 in
18:01 78.3 °F 59.2 °F 30.11 in SE 3.9 mph 9.2 mph 52 % 0.00 in
18:06 78.1 °F 60.1 °F 30.11 in South 1.5 mph 3.5 mph 54 % 0.00 in
18:11 77.9 °F 59.4 °F 30.11 in SSE 2.2 mph 4.6 mph 53 % 0.00 in
18:16 77.6 °F 58.6 °F 30.11 in SSE 6.0 mph 11.5 mph 52 % 0.00 in
18:21 77.1 °F 58.1 °F 30.11 in SSE 1.5 mph 3.5 mph 52 % 0.00 in
18:27 76.9 °F 58.5 °F 30.11 in ESE 2.0 mph 3.5 mph 53 % 0.00 in
18:32 76.7 °F 58.3 °F 30.11 in South 3.2 mph 9.2 mph 53 % 0.00 in
18:37 76.4 °F 57.5 °F 30.11 in South 2.2 mph 9.2 mph 52 % 0.00 in
18:42 76.2 °F 57.8 °F 30.11 in South 1.8 mph 5.8 mph 53 % 0.00 in
18:47 76.0 °F 57.6 °F 30.11 in South 0.1 mph 2.3 mph 53 % 0.00 in
18:52 75.8 °F 58.5 °F 30.11 in SSE 0.3 mph 2.3 mph 55 % 0.00 in
18:57 75.8 °F 58.5 °F 30.11 in SSW 2.9 mph 5.0 mph 55 % 0.00 in
19:02 75.6 °F 56.7 °F 30.11 in South 2.5 mph 6.9 mph 52 % 0.00 in
19:07 75.4 °F 57.1 °F 30.11 in SSW 1.9 mph 3.5 mph 53 % 0.00 in
19:12 75.1 °F 56.3 °F 30.11 in South 0.9 mph 2.3 mph 52 % 0.00 in
19:18 74.9 °F 57.1 °F 30.11 in South 1.9 mph 3.5 mph 54 % 0.00 in
19:23 74.7 °F 57.5 °F 30.10 in SSW 2.1 mph 5.8 mph 55 % 0.00 in
19:28 74.6 °F 57.4 °F 30.10 in SE 1.6 mph 9.2 mph 55 % 0.00 in
19:33 74.2 °F 57.5 °F 30.10 in SSE 2.9 mph 6.9 mph 56 % 0.00 in
19:38 74.0 °F 56.8 °F 30.10 in SSW 1.8 mph 4.6 mph 55 % 0.00 in
19:43 73.8 °F 56.1 °F 30.10 in South 3.3 mph 7.0 mph 54 % 0.00 in
19:48 73.6 °F 56.4 °F 30.10 in South 2.2 mph 4.0 mph 55 % 0.00 in
19:53 73.4 °F 56.7 °F 30.10 in SSW 2.6 mph 3.5 mph 56 % 0.00 in
19:58 73.2 °F 56.6 °F 30.10 in South 2.2 mph 3.5 mph 56 % 0.00 in
20:03 73.1 °F 56.5 °F 30.10 in SSW 1.7 mph 8.1 mph 56 % 0.00 in
20:09 72.8 °F 56.7 °F 30.09 in SSW 0.4 mph 3.0 mph 57 % 0.00 in
20:14 72.7 °F 56.6 °F 30.09 in South 1.8 mph 4.0 mph 57 % 0.00 in
20:19 72.5 °F 56.9 °F 30.09 in South 2.1 mph 4.6 mph 58 % 0.00 in
20:24 72.2 °F 56.6 °F 30.09 in SSW 1.4 mph 3.5 mph 58 % 0.00 in
20:29 72.1 °F 57.0 °F 30.09 in SSW 2.4 mph 6.9 mph 59 % 0.00 in
20:34 71.9 °F 56.8 °F 30.09 in South 1.1 mph 3.0 mph 59 % 0.00 in
20:44 71.6 °F 55.6 °F 30.09 in SSE 1.2 mph 3.5 mph 57 % 0.00 in
20:49 71.4 °F 55.4 °F 30.09 in WSW 1.4 mph 2.0 mph 57 % 0.00 in
20:54 71.4 °F 55.4 °F 30.10 in Calm   1.2 mph 57 % 0.00 in
21:00 71.3 °F 55.8 °F 30.10 in West 0.7 mph 2.3 mph 58 % 0.00 in
21:05 71.2 °F 55.7 °F 30.10 in Calm   1.2 mph 58 % 0.00 in
21:10 71.1 °F 55.6 °F 30.10 in SW 0.7 mph 1.2 mph 58 % 0.00 in
21:15 70.9 °F 55.4 °F 30.10 in SW 0.6 mph 3.5 mph 58 % 0.00 in
21:20 70.7 °F 55.2 °F 30.10 in SW 1.2 mph 3.5 mph 58 % 0.00 in
21:25 70.6 °F 55.6 °F 30.10 in WNW 0.2 mph 1.2 mph 59 % 0.00 in
21:30 70.4 °F 55.4 °F 30.10 in SE 0.1 mph 2.3 mph 59 % 0.00 in
21:35 70.3 °F 55.8 °F 30.10 in SE 0.8 mph 1.2 mph 60 % 0.00 in
21:40 70.2 °F 55.7 °F 30.10 in Calm     60 % 0.00 in
21:45 70.1 °F 56.0 °F 30.10 in Calm   1.2 mph 61 % 0.00 in
21:51 69.9 °F 56.3 °F 30.10 in WSW 0.7 mph 2.3 mph 62 % 0.00 in
21:56 69.8 °F 56.6 °F 30.10 in WSW 0.4 mph 2.3 mph 63 % 0.00 in
22:01 69.6 °F 56.4 °F 30.09 in Calm   1.2 mph 63 % 0.00 in
22:06 69.5 °F 57.2 °F 30.10 in SW 0.9 mph 3.5 mph 65 % 0.00 in
22:11 69.3 °F 57.0 °F 30.10 in SW 1.3 mph 3.5 mph 65 % 0.00 in
22:16 69.2 °F 57.4 °F 30.10 in SW 0.1 mph 1.2 mph 66 % 0.00 in
22:21 69.1 °F 57.7 °F 30.10 in SW 0.6 mph 2.3 mph 67 % 0.00 in
22:26 69.0 °F 58.0 °F 30.10 in SW 0.2 mph 3.5 mph 68 % 0.00 in
22:31 68.9 °F 57.9 °F 30.10 in WSW 0.9 mph 2.0 mph 68 % 0.00 in
22:36 68.8 °F 58.2 °F 30.10 in WSW 0.7 mph 3.5 mph 69 % 0.00 in
22:42 68.7 °F 58.1 °F 30.10 in Calm   3.5 mph 69 % 0.00 in
22:47 68.6 °F 58.4 °F 30.10 in WSW 0.1 mph 3.5 mph 70 % 0.00 in
22:52 68.5 °F 58.7 °F 30.10 in Calm   1.2 mph 71 % 0.00 in
22:57 68.3 °F 58.5 °F 30.10 in Calm   1.2 mph 71 % 0.00 in
23:02 68.2 °F 58.4 °F 30.10 in WSW 0.1 mph 1.2 mph 71 % 0.00 in
23:07 68.1 °F 58.7 °F 30.10 in Calm     72 % 0.00 in
23:12 67.9 °F 58.9 °F 30.10 in WSW 0.2 mph 2.0 mph 73 % 0.00 in
23:17 67.7 °F 58.7 °F 30.10 in WSW 0.4 mph 1.0 mph 73 % 0.00 in
23:22 67.6 °F 59.0 °F 30.10 in Calm   1.2 mph 74 % 0.00 in
23:27 67.4 °F 58.8 °F 30.10 in Calm     74 % 0.00 in
23:33 67.2 °F 59.4 °F 30.10 in Calm     76 % 0.00 in
23:38 67.1 °F 59.3 °F 30.10 in WSW 0.3 mph 1.2 mph 76 % 0.00 in
23:43 66.9 °F 59.5 °F 30.10 in Calm   2.3 mph 77 % 0.00 in
23:48 66.8 °F 59.4 °F 30.10 in Calm     77 % 0.00 in
23:53 66.7 °F 59.3 °F 30.10 in Calm   1.2 mph 77 % 0.00 in
23:58 66.6 °F 59.5 °F 30.10 in Calm     78 % 0.00 in
Crab Meadow Weather
Compliments of Weather Underground - 2.75 mb

Script developed by  Jim McMurry - jmcmurry@mwt.net Adapted for the template by  Wim van der Kuil - Leuven-Template.eu

Astronomy: The light of the Sun takes 8 minutes to reach Earth.